Time;durP1;ratioP1;P1;durP2;ratioP2;P2;SDS_P1;SDS_P2;PMS_P1;PMS_P2;Temp;Humidity;BMP_temperature;BMP_pressure;BME280_temperature;BME280_humidity;BME280_pressure;Samples;Min_cycle;Max_cycle;Signal;HPM_P1;HPM_P2
2021/06/06 00:01:05;;;;;;;;;;;19.00;99.90;;;;;;5028898;28;19916;-54
2021/06/06 00:03:39;;;;;;;;;;;19.00;99.90;;;;;;5028555;28;20333;-55
2021/06/06 00:06:04;;;;;;;;;;;19.00;99.90;;;;;;5028777;28;20059;-55
2021/06/06 00:08:30;;;;;;;;;;;18.90;99.90;;;;;;5029929;28;20463;-57
2021/06/06 00:10:58;;;;;;;;;;;18.90;99.90;;;;;;5030545;28;19909;-53
2021/06/06 00:13:24;;;;;;;;;;;18.90;99.90;;;;;;5029974;28;19909;-55
2021/06/06 00:15:50;;;;;;;;;;;18.80;99.90;;;;;;5028531;28;19917;-56
2021/06/06 00:18:15;;;;;;;;;;;18.80;99.90;;;;;;5030113;28;19917;-57
2021/06/06 00:20:41;;;;;;;;;;;18.80;99.90;;;;;;5028704;28;19961;-55
2021/06/06 00:23:07;;;;;;;;;;;18.70;99.90;;;;;;5029503;28;20000;-56
2021/06/06 00:25:32;;;;;;;;;;;18.70;99.90;;;;;;5024584;28;20575;-56
2021/06/06 00:27:58;;;;;;;;;;;18.70;99.90;;;;;;5030429;28;20000;-54
2021/06/06 00:30:24;;;;;;;;;;;18.70;99.90;;;;;;5030282;28;19916;-56
2021/06/06 00:32:49;;;;;;;;;;;18.60;99.90;;;;;;5029819;28;19913;-56
2021/06/06 00:35:15;;;;;;;;;;;18.50;99.90;;;;;;5026577;28;19913;-58
2021/06/06 00:37:41;;;;;;;;;;;18.50;99.90;;;;;;5030000;28;19917;-57
2021/06/06 00:40:07;;;;;;;;;;;18.50;99.90;;;;;;5029503;28;19913;-55
2021/06/06 00:42:33;;;;;;;;;;;18.50;99.90;;;;;;5024421;28;19916;-53
2021/06/06 00:44:58;;;;;;;;;;;18.50;99.90;;;;;;5028039;28;20341;-53
2021/06/06 00:47:25;;;;;;;;;;;18.40;99.90;;;;;;5029801;28;20012;-54
2021/06/06 00:49:51;;;;;;;;;;;18.40;99.90;;;;;;5029165;28;19966;-54
2021/06/06 00:52:17;;;;;;;;;;;18.40;99.90;;;;;;5029491;28;19946;-52
2021/06/06 00:54:45;;;;;;;;;;;18.40;99.90;;;;;;5029359;28;19916;-54
2021/06/06 00:57:14;;;;;;;;;;;18.30;99.90;;;;;;5030125;28;19913;-54
2021/06/06 00:59:43;;;;;;;;;;;18.30;99.90;;;;;;5027483;28;20011;-53
2021/06/06 01:02:09;;;;;;;;;;;18.30;99.90;;;;;;5026049;28;19913;-56
2021/06/06 01:04:35;;;;;;;;;;;18.30;99.90;;;;;;5026633;28;20414;-55
2021/06/06 01:07:01;;;;;;;;;;;18.30;99.90;;;;;;5028808;28;19909;-55
2021/06/06 01:09:27;;;;;;;;;;;18.30;99.90;;;;;;5033563;28;19909;-57
2021/06/06 01:11:52;;;;;;;;;;;18.30;99.90;;;;;;5032409;28;19917;-55
2021/06/06 01:14:20;;;;;;;;;;;18.30;99.90;;;;;;5041658;28;20554;-54
2021/06/06 01:16:52;;;;;;;;;;;18.30;99.90;;;;;;5033239;28;19916;-57
2021/06/06 01:19:27;;;;;;;;;;;18.40;99.90;;;;;;5033275;28;19963;-57
2021/06/06 01:22:11;;;;;;;;;;;18.40;99.90;;;;;;5031961;28;19917;-56
2021/06/06 01:24:39;;;;;;;;;;;18.50;99.90;;;;;;5033510;28;19948;-55
2021/06/06 01:27:07;;;;;;;;;;;18.50;99.90;;;;;;5038383;28;19909;-55
2021/06/06 01:29:34;;;;;;;;;;;18.50;99.90;;;;;;5033522;28;19913;-56
2021/06/06 01:32:09;;;;;;;;;;;18.50;99.90;;;;;;5036419;28;20016;-56
2021/06/06 01:34:35;;;;;;;;;;;18.50;99.90;;;;;;5031059;28;20582;-51
2021/06/06 01:37:03;;;;;;;;;;;18.50;99.90;;;;;;5034762;28;19909;-52
2021/06/06 01:39:33;;;;;;;;;;;18.50;99.90;;;;;;5031498;28;19917;-51
2021/06/06 01:42:07;;;;;;;;;;;18.50;99.90;;;;;;5019648;28;19914;-55
2021/06/06 01:44:35;;;;;;;;;;;18.40;99.90;;;;;;5012875;28;19924;-53
2021/06/06 01:47:09;;;;;;;;;;;18.40;99.90;;;;;;5015094;28;19924;-54
2021/06/06 01:49:39;;;;;;;;;;;18.40;99.90;;;;;;5013164;28;20006;-54
2021/06/06 01:52:06;;;;;;;;;;;18.40;99.90;;;;;;5019268;28;19909;-51
2021/06/06 01:54:35;;;;;;;;;;;18.40;99.90;;;;;;5017589;28;19949;-57
2021/06/06 01:57:00;;;;;;;;;;;18.40;99.90;;;;;;5017151;28;19984;-55
2021/06/06 01:59:34;;;;;;;;;;;18.40;99.90;;;;;;5021851;28;20381;-56
2021/06/06 02:02:00;;;;;;;;;;;18.30;99.90;;;;;;5032335;28;19963;-55
2021/06/06 02:04:27;;;;;;;;;;;18.40;99.90;;;;;;5034937;28;19913;-52
2021/06/06 02:06:56;;;;;;;;;;;18.40;99.90;;;;;;5031716;28;19917;-55
2021/06/06 02:09:23;;;;;;;;;;;18.40;99.90;;;;;;5030967;28;20486;-54
2021/06/06 02:11:51;;;;;;;;;;;18.40;99.90;;;;;;5039400;28;19909;-56
2021/06/06 02:14:18;;;;;;;;;;;18.40;99.90;;;;;;5029964;28;20318;-55
2021/06/06 02:17:05;;;;;;;;;;;18.40;99.90;;;;;;5037434;28;19939;-56
2021/06/06 02:19:31;;;;;;;;;;;18.40;99.90;;;;;;5028317;28;20121;-53
2021/06/06 02:21:58;;;;;;;;;;;18.40;99.90;;;;;;5035649;28;20441;-53
2021/06/06 02:24:24;;;;;;;;;;;18.40;99.90;;;;;;5035686;28;19913;-55
2021/06/06 02:26:59;;;;;;;;;;;18.30;99.90;;;;;;5033909;28;20290;-53
2021/06/06 02:29:48;;;;;;;;;;;18.30;99.90;;;;;;5035489;28;19909;-57
2021/06/06 02:32:20;;;;;;;;;;;18.20;99.90;;;;;;5024230;28;19971;-53
2021/06/06 02:34:48;;;;;;;;;;;18.20;99.90;;;;;;5033249;28;20350;-56
2021/06/06 02:37:17;;;;;;;;;;;18.20;99.90;;;;;;5031010;28;19910;-56
2021/06/06 02:39:44;;;;;;;;;;;18.20;99.90;;;;;;5033241;28;19917;-56
2021/06/06 02:42:19;;;;;;;;;;;18.20;99.90;;;;;;5037541;28;20359;-55
2021/06/06 02:44:51;;;;;;;;;;;18.20;99.90;;;;;;5032083;28;19913;-52
2021/06/06 02:47:19;;;;;;;;;;;18.20;99.90;;;;;;5038252;28;20372;-56
2021/06/06 02:49:45;;;;;;;;;;;18.20;99.90;;;;;;5033604;28;20007;-54
2021/06/06 02:52:19;;;;;;;;;;;18.20;99.90;;;;;;5037656;28;20004;-55
2021/06/06 02:54:47;;;;;;;;;;;18.20;99.90;;;;;;5034200;28;19979;-55
2021/06/06 02:57:14;;;;;;;;;;;18.10;99.90;;;;;;5036226;28;19917;-57
2021/06/06 03:00:06;;;;;;;;;;;18.20;99.90;;;;;;5036253;28;19963;-56
2021/06/06 03:02:36;;;;;;;;;;;18.10;99.90;;;;;;5039444;28;19909;-56
2021/06/06 03:05:03;;;;;;;;;;;18.10;99.90;;;;;;5033475;28;20265;-57
2021/06/06 03:07:37;;;;;;;;;;;18.10;99.90;;;;;;5037099;28;19982;-56
2021/06/06 03:10:04;;;;;;;;;;;18.10;99.90;;;;;;5033397;28;20004;-54
2021/06/06 03:12:30;;;;;;;;;;;18.10;99.90;;;;;;5035968;28;19909;-53
2021/06/06 03:14:56;;;;;;;;;;;18.10;99.90;;;;;;5051097;22;19974;-58
2021/06/06 03:17:26;;;;;;;;;;;18.10;99.90;;;;;;5051228;28;19908;-57
2021/06/06 03:19:54;;;;;;;;;;;18.10;99.90;;;;;;5050245;28;19919;-57
2021/06/06 03:22:21;;;;;;;;;;;18.00;99.90;;;;;;5050836;28;19924;-55
2021/06/06 03:25:01;;;;;;;;;;;18.00;99.90;;;;;;5045435;28;20072;-55
2021/06/06 03:27:32;;;;;;;;;;;17.90;99.90;;;;;;5024584;28;19940;-55
2021/06/06 03:30:08;;;;;;;;;;;17.90;99.90;;;;;;5030938;28;20005;-53
2021/06/06 03:32:35;;;;;;;;;;;17.80;99.90;;;;;;5030940;28;19913;-49
2021/06/06 03:35:02;;;;;;;;;;;17.80;99.90;;;;;;5030360;28;19944;-49
2021/06/06 03:37:27;;;;;;;;;;;17.70;99.90;;;;;;5031017;28;19932;-50
2021/06/06 03:39:56;;;;;;;;;;;17.70;99.90;;;;;;5030787;28;20535;-57
2021/06/06 03:42:22;;;;;;;;;;;17.70;99.90;;;;;;5031283;28;19909;-52
2021/06/06 03:44:48;;;;;;;;;;;17.70;99.90;;;;;;5030765;28;20383;-54
2021/06/06 03:47:13;;;;;;;;;;;17.70;99.90;;;;;;5031151;28;19936;-51
2021/06/06 03:49:39;;;;;;;;;;;17.70;99.90;;;;;;5031080;28;19999;-53
2021/06/06 03:52:05;;;;;;;;;;;17.60;99.90;;;;;;5030712;28;20449;-49
2021/06/06 03:54:31;;;;;;;;;;;17.60;99.90;;;;;;5030818;28;19913;-50
2021/06/06 03:56:57;;;;;;;;;;;17.50;99.90;;;;;;5030182;28;20354;-51
2021/06/06 03:59:23;;;;;;;;;;;17.50;99.90;;;;;;5030250;28;19909;-51
2021/06/06 04:01:49;;;;;;;;;;;17.50;99.90;;;;;;5030893;28;19916;-52
2021/06/06 04:04:15;;;;;;;;;;;17.50;99.90;;;;;;5030340;28;19913;-53
2021/06/06 04:06:40;;;;;;;;;;;17.50;99.90;;;;;;5029938;28;20459;-51
2021/06/06 04:09:06;;;;;;;;;;;17.50;99.90;;;;;;5030445;28;19913;-53
2021/06/06 04:11:32;;;;;;;;;;;17.40;99.90;;;;;;5030979;28;19979;-54
2021/06/06 04:13:57;;;;;;;;;;;17.40;99.90;;;;;;5030341;28;19932;-55
2021/06/06 04:16:23;;;;;;;;;;;17.40;99.90;;;;;;5029355;28;20064;-50
2021/06/06 04:18:48;;;;;;;;;;;17.40;99.90;;;;;;5030500;28;19944;-52
2021/06/06 04:21:16;;;;;;;;;;;17.40;99.90;;;;;;5028402;28;19920;-51
2021/06/06 04:23:42;;;;;;;;;;;17.40;99.90;;;;;;5030263;28;19913;-53
2021/06/06 04:26:08;;;;;;;;;;;17.40;99.90;;;;;;5028796;28;19971;-50
2021/06/06 04:28:34;;;;;;;;;;;17.40;99.90;;;;;;5030334;28;20003;-52
2021/06/06 04:30:59;;;;;;;;;;;17.40;99.90;;;;;;5029275;28;20334;-49
2021/06/06 04:33:25;;;;;;;;;;;17.40;99.90;;;;;;5029696;28;19917;-50
2021/06/06 04:35:50;;;;;;;;;;;17.40;99.90;;;;;;5029282;28;19913;-50
2021/06/06 04:38:18;;;;;;;;;;;17.40;99.90;;;;;;5029973;28;19913;-51
2021/06/06 04:40:43;;;;;;;;;;;17.30;99.90;;;;;;5029805;28;19909;-49
2021/06/06 04:43:09;;;;;;;;;;;17.40;99.90;;;;;;5029068;28;20440;-52
2021/06/06 04:45:35;;;;;;;;;;;17.40;99.90;;;;;;5029096;28;19945;-54
2021/06/06 04:48:10;;;;;;;;;;;17.40;99.90;;;;;;5029006;28;20574;-50
2021/06/06 04:50:36;;;;;;;;;;;17.40;99.90;;;;;;5029395;28;19913;-49
2021/06/06 04:53:02;;;;;;;;;;;17.30;99.90;;;;;;5029595;28;19932;-50
2021/06/06 04:55:27;;;;;;;;;;;17.30;99.90;;;;;;5027715;28;20520;-52
2021/06/06 04:57:53;;;;;;;;;;;17.40;99.90;;;;;;5029565;28;19909;-50
2021/06/06 05:00:22;;;;;;;;;;;17.40;99.90;;;;;;5029105;28;20380;-53
2021/06/06 05:02:48;;;;;;;;;;;17.30;99.90;;;;;;5029091;28;20623;-54
2021/06/06 05:05:13;;;;;;;;;;;17.30;99.90;;;;;;5028608;28;19992;-54
2021/06/06 05:07:39;;;;;;;;;;;17.30;99.90;;;;;;5029368;28;19909;-50
2021/06/06 05:10:06;;;;;;;;;;;17.30;99.90;;;;;;5026669;28;19913;-52
2021/06/06 05:12:31;;;;;;;;;;;17.30;99.90;;;;;;5027830;28;19925;-51
2021/06/06 05:14:57;;;;;;;;;;;17.20;99.90;;;;;;5028461;28;19920;-55
2021/06/06 05:17:22;;;;;;;;;;;17.30;99.90;;;;;;5029339;28;20008;-50
2021/06/06 05:19:48;;;;;;;;;;;17.20;99.90;;;;;;5028319;28;19968;-54
2021/06/06 05:22:14;;;;;;;;;;;17.20;99.90;;;;;;5028444;28;19959;-53
2021/06/06 05:24:39;;;;;;;;;;;17.20;99.90;;;;;;5028358;28;19914;-52
2021/06/06 05:27:05;;;;;;;;;;;17.20;99.90;;;;;;5028877;28;19909;-52
2021/06/06 05:29:30;;;;;;;;;;;17.10;99.90;;;;;;5028830;28;19909;-52
2021/06/06 05:31:56;;;;;;;;;;;17.10;99.90;;;;;;5028790;28;19909;-52
2021/06/06 05:34:22;;;;;;;;;;;17.10;99.90;;;;;;5027158;28;19949;-59
2021/06/06 05:36:47;;;;;;;;;;;17.10;99.90;;;;;;5028268;28;19963;-53
2021/06/06 05:39:13;;;;;;;;;;;17.10;99.90;;;;;;5028548;28;19963;-52
2021/06/06 05:41:39;;;;;;;;;;;17.00;99.90;;;;;;5028548;28;20295;-53
2021/06/06 05:44:05;;;;;;;;;;;17.00;99.90;;;;;;5028422;28;19913;-54
2021/06/06 05:46:31;;;;;;;;;;;17.00;99.90;;;;;;5028472;28;19909;-54
2021/06/06 05:48:56;;;;;;;;;;;17.00;99.90;;;;;;5028350;28;19913;-51
2021/06/06 05:51:22;;;;;;;;;;;17.00;99.90;;;;;;5028519;28;19936;-52
2021/06/06 05:53:47;;;;;;;;;;;17.00;99.90;;;;;;5028009;28;19909;-51
2021/06/06 05:56:13;;;;;;;;;;;17.00;99.90;;;;;;5028460;28;20012;-55
2021/06/06 05:58:39;;;;;;;;;;;17.00;99.90;;;;;;5028931;28;19909;-50
2021/06/06 06:01:05;;;;;;;;;;;17.00;99.90;;;;;;5028989;28;19913;-55
2021/06/06 06:03:30;;;;;;;;;;;17.00;99.90;;;;;;5028144;28;19967;-51
2021/06/06 06:05:56;;;;;;;;;;;17.00;99.90;;;;;;5027497;28;20395;-55
2021/06/06 06:08:23;;;;;;;;;;;17.00;99.90;;;;;;5028326;28;20004;-52
2021/06/06 06:10:49;;;;;;;;;;;17.00;99.90;;;;;;5028554;28;20410;-55
2021/06/06 06:13:16;;;;;;;;;;;17.00;99.90;;;;;;5028112;28;19916;-51
2021/06/06 06:15:41;;;;;;;;;;;16.90;99.90;;;;;;5028530;28;20537;-53
2021/06/06 06:18:07;;;;;;;;;;;16.90;99.90;;;;;;5028758;28;19910;-54
2021/06/06 06:20:33;;;;;;;;;;;16.90;99.90;;;;;;5029342;28;20276;-52
2021/06/06 06:22:58;;;;;;;;;;;16.90;99.90;;;;;;5032653;28;19909;-51
2021/06/06 06:25:24;;;;;;;;;;;16.80;99.90;;;;;;5032312;28;20350;-50
2021/06/06 06:27:49;;;;;;;;;;;16.90;99.90;;;;;;5032660;28;20009;-55
2021/06/06 06:30:17;;;;;;;;;;;16.80;99.90;;;;;;5031243;28;19944;-54
2021/06/06 06:32:43;;;;;;;;;;;16.80;99.90;;;;;;5031914;28;19909;-51
2021/06/06 06:35:09;;;;;;;;;;;16.90;99.90;;;;;;5031451;28;20438;-55
2021/06/06 06:37:35;;;;;;;;;;;16.90;99.90;;;;;;5032087;28;20016;-52
2021/06/06 06:40:00;;;;;;;;;;;16.80;99.90;;;;;;5031487;28;19966;-56
2021/06/06 06:42:26;;;;;;;;;;;16.80;99.90;;;;;;5030729;28;19913;-52
2021/06/06 06:44:52;;;;;;;;;;;16.80;99.90;;;;;;5031581;28;19917;-51
2021/06/06 06:47:17;;;;;;;;;;;16.80;99.90;;;;;;5031266;28;19916;-53
2021/06/06 06:49:43;;;;;;;;;;;16.80;99.90;;;;;;5032171;28;19909;-54
2021/06/06 06:52:09;;;;;;;;;;;16.90;99.90;;;;;;5031629;28;20368;-51
2021/06/06 06:54:34;;;;;;;;;;;17.00;99.90;;;;;;5026297;28;20455;-54
2021/06/06 06:57:00;;;;;;;;;;;17.00;99.90;;;;;;5016568;28;19913;-51
2021/06/06 06:59:28;;;;;;;;;;;17.00;99.90;;;;;;5031954;28;19913;-54
2021/06/06 07:01:57;;;;;;;;;;;17.10;99.90;;;;;;5031616;28;19913;-54
2021/06/06 07:04:23;;;;;;;;;;;17.10;99.90;;;;;;5030799;28;19913;-56
2021/06/06 07:06:52;;;;;;;;;;;17.10;99.90;;;;;;5030979;28;19915;-54
2021/06/06 07:09:18;;;;;;;;;;;17.10;99.90;;;;;;5031167;28;20433;-53
2021/06/06 07:11:43;;;;;;;;;;;17.10;99.90;;;;;;5031517;28;19909;-56
2021/06/06 07:14:09;;;;;;;;;;;17.10;99.90;;;;;;5029210;28;19917;-53
2021/06/06 07:16:34;;;;;;;;;;;17.10;99.90;;;;;;5030869;28;19927;-51
2021/06/06 07:19:00;;;;;;;;;;;17.10;99.90;;;;;;5031059;28;19913;-54
2021/06/06 07:21:25;;;;;;;;;;;17.20;99.90;;;;;;5031255;28;19909;-54
2021/06/06 07:23:51;;;;;;;;;;;17.20;99.90;;;;;;5031329;28;19913;-56
2021/06/06 07:26:40;;;;;;;;;;;17.20;99.90;;;;;;5030812;28;19971;-57
2021/06/06 07:29:09;;;;;;;;;;;17.20;99.90;;;;;;5033267;28;19945;-55
2021/06/06 07:31:35;;;;;;;;;;;17.30;99.90;;;;;;5031014;28;20379;-57
2021/06/06 07:34:02;;;;;;;;;;;17.30;99.90;;;;;;5030053;28;20004;-57
2021/06/06 07:36:27;;;;;;;;;;;17.30;99.90;;;;;;5030643;28;19916;-57
2021/06/06 07:38:53;;;;;;;;;;;17.40;99.90;;;;;;5030289;28;20003;-57
2021/06/06 07:41:19;;;;;;;;;;;17.40;99.90;;;;;;5031028;28;19932;-58
2021/06/06 07:43:45;;;;;;;;;;;17.50;99.90;;;;;;5030442;28;19924;-57
2021/06/06 07:46:10;;;;;;;;;;;17.50;99.90;;;;;;5018416;28;19960;-57
2021/06/06 07:48:36;;;;;;;;;;;17.50;99.90;;;;;;5016909;28;19922;-53
2021/06/06 07:51:03;;;;;;;;;;;17.50;99.90;;;;;;5012374;28;19909;-57
2021/06/06 07:53:28;;;;;;;;;;;17.50;99.90;;;;;;5024733;28;19944;-58
2021/06/06 07:55:55;;;;;;;;;;;17.50;99.90;;;;;;5015202;28;20530;-57
2021/06/06 07:58:22;;;;;;;;;;;17.50;99.90;;;;;;5013658;28;19909;-57
2021/06/06 08:00:48;;;;;;;;;;;17.50;99.90;;;;;;5014194;28;19955;-57
2021/06/06 08:03:14;;;;;;;;;;;17.50;99.90;;;;;;5014771;28;19913;-56
2021/06/06 08:05:40;;;;;;;;;;;17.50;99.90;;;;;;5018018;28;20276;-58
2021/06/06 08:08:06;;;;;;;;;;;17.50;99.90;;;;;;5030074;28;20353;-57
2021/06/06 08:10:33;;;;;;;;;;;17.50;99.90;;;;;;5030054;28;19909;-58
2021/06/06 08:12:58;;;;;;;;;;;17.50;99.90;;;;;;5028519;28;19949;-56
2021/06/06 08:15:24;;;;;;;;;;;17.60;99.90;;;;;;5029795;28;19952;-57
2021/06/06 08:17:50;;;;;;;;;;;17.60;99.90;;;;;;5029319;28;19915;-57
2021/06/06 08:20:23;;;;;;;;;;;17.60;99.90;;;;;;5029775;28;19909;-59
2021/06/06 08:22:48;;;;;;;;;;;17.60;99.90;;;;;;5030413;28;19909;-58
2021/06/06 08:25:14;;;;;;;;;;;17.70;99.90;;;;;;5029476;28;19920;-59
2021/06/06 08:27:42;;;;;;;;;;;17.70;99.90;;;;;;5030474;28;20012;-59
2021/06/06 08:30:13;;;;;;;;;;;17.70;99.90;;;;;;5029958;28;19971;-59
2021/06/06 08:32:39;;;;;;;;;;;17.80;99.90;;;;;;5029752;28;20288;-58
2021/06/06 08:35:06;;;;;;;;;;;17.80;99.90;;;;;;5029439;28;19913;-57
2021/06/06 08:37:31;;;;;;;;;;;17.80;99.90;;;;;;5029815;28;19909;-56
2021/06/06 08:39:57;;;;;;;;;;;17.90;99.90;;;;;;5029334;28;19915;-59
2021/06/06 08:42:25;;;;;;;;;;;17.90;99.90;;;;;;5029771;28;19921;-58
2021/06/06 08:44:56;;;;;;;;;;;17.90;99.90;;;;;;5029240;28;19934;-59
2021/06/06 08:47:25;;;;;;;;;;;18.00;99.90;;;;;;5029408;28;19949;-58
2021/06/06 08:49:57;;;;;;;;;;;18.00;99.90;;;;;;5029844;28;19909;-57
2021/06/06 08:52:37;;;;;;;;;;;18.10;99.90;;;;;;5029275;28;19996;-58
2021/06/06 08:55:07;;;;;;;;;;;18.10;99.90;;;;;;5029082;28;19909;-58
2021/06/06 08:57:35;;;;;;;;;;;18.20;99.90;;;;;;5029556;28;19952;-56
2021/06/06 09:00:03;;;;;;;;;;;18.30;99.90;;;;;;5029734;28;19935;-59
2021/06/06 09:02:36;;;;;;;;;;;18.30;99.90;;;;;;5029060;28;19913;-59
2021/06/06 09:05:06;;;;;;;;;;;18.40;99.90;;;;;;5028883;28;19913;-59
2021/06/06 09:07:44;;;;;;;;;;;18.40;99.90;;;;;;5029106;28;20359;-58
2021/06/06 09:10:14;;;;;;;;;;;18.40;99.90;;;;;;5029346;28;19909;-59
2021/06/06 09:12:40;;;;;;;;;;;18.50;99.90;;;;;;5010255;28;19917;-58
2021/06/06 09:15:07;;;;;;;;;;;18.50;99.90;;;;;;5011539;28;20118;-57
2021/06/06 09:17:35;;;;;;;;;;;18.60;99.90;;;;;;5021681;28;19932;-57
2021/06/06 09:20:01;;;;;;;;;;;18.60;99.90;;;;;;5026929;28;20008;-57
2021/06/06 09:22:29;;;;;;;;;;;18.70;99.90;;;;;;5028922;28;20332;-58
2021/06/06 09:24:54;;;;;;;;;;;18.80;99.90;;;;;;5026866;28;19921;-58
2021/06/06 09:27:20;;;;;;;;;;;18.90;99.90;;;;;;5029087;28;19916;-59
2021/06/06 09:29:57;;;;;;;;;;;18.90;99.90;;;;;;5028972;28;20371;-56
2021/06/06 09:32:22;;;;;;;;;;;19.00;99.90;;;;;;5026510;28;19953;-58
2021/06/06 09:34:51;;;;;;;;;;;19.10;99.90;;;;;;5028250;28;20414;-57
2021/06/06 09:37:18;;;;;;;;;;;19.10;99.90;;;;;;5028423;28;19916;-57
2021/06/06 09:39:46;;;;;;;;;;;19.20;99.90;;;;;;5028294;28;19917;-58
2021/06/06 09:42:20;;;;;;;;;;;19.20;99.90;;;;;;5027228;28;19920;-55
2021/06/06 09:44:46;;;;;;;;;;;19.20;99.90;;;;;;5028030;28;19913;-59
2021/06/06 09:47:13;;;;;;;;;;;19.20;99.90;;;;;;5028457;28;19916;-58
2021/06/06 09:49:46;;;;;;;;;;;19.20;99.90;;;;;;5028970;28;19940;-57
2021/06/06 09:52:11;;;;;;;;;;;19.20;99.90;;;;;;5027248;28;20681;-55
2021/06/06 09:54:37;;;;;;;;;;;19.20;99.90;;;;;;5028220;28;19909;-56
2021/06/06 09:57:05;;;;;;;;;;;19.20;99.90;;;;;;5027850;28;20052;-57
2021/06/06 09:59:32;;;;;;;;;;;19.20;99.90;;;;;;5028550;28;20371;-58
2021/06/06 10:02:03;;;;;;;;;;;19.20;99.90;;;;;;5028873;28;19948;-54
2021/06/06 10:04:30;;;;;;;;;;;19.20;99.90;;;;;;5024653;28;19975;-56
2021/06/06 10:07:05;;;;;;;;;;;19.10;99.90;;;;;;5027010;28;20003;-59
2021/06/06 10:09:32;;;;;;;;;;;19.00;99.90;;;;;;5024279;28;19943;-56
2021/06/06 10:12:06;;;;;;;;;;;19.00;99.90;;;;;;5028300;28;20368;-58
2021/06/06 10:14:38;;;;;;;;;;;18.90;99.90;;;;;;5027486;28;19909;-57
2021/06/06 10:17:08;;;;;;;;;;;18.90;99.90;;;;;;5028320;28;19913;-58
2021/06/06 10:19:40;;;;;;;;;;;18.90;99.90;;;;;;5027963;28;19978;-59
2021/06/06 10:22:25;;;;;;;;;;;18.90;99.90;;;;;;5027881;28;19908;-59
2021/06/06 10:24:57;;;;;;;;;;;18.90;99.90;;;;;;5027647;28;19956;-57
2021/06/06 10:27:28;;;;;;;;;;;18.90;99.90;;;;;;5031571;28;19916;-57
2021/06/06 10:30:08;;;;;;;;;;;18.90;99.90;;;;;;5027981;28;19909;-57
2021/06/06 10:32:37;;;;;;;;;;;18.90;99.90;;;;;;5028176;28;20463;-58
2021/06/06 10:35:13;;;;;;;;;;;18.90;99.90;;;;;;5028251;28;19909;-58
2021/06/06 10:37:40;;;;;;;;;;;18.90;99.90;;;;;;5028063;28;19909;-58
2021/06/06 10:40:12;;;;;;;;;;;18.90;99.90;;;;;;5028095;28;20112;-56
2021/06/06 10:42:40;;;;;;;;;;;18.90;99.90;;;;;;5026700;28;20012;-56
2021/06/06 10:45:11;;;;;;;;;;;19.00;99.90;;;;;;5013114;28;20067;-57
2021/06/06 10:47:42;;;;;;;;;;;19.00;99.90;;;;;;5010392;28;20323;-57
2021/06/06 10:50:14;;;;;;;;;;;19.00;99.90;;;;;;5011233;28;19917;-58
2021/06/06 10:52:40;;;;;;;;;;;19.00;99.90;;;;;;5015689;28;20387;-57
2021/06/06 10:55:23;;;;;;;;;;;19.10;99.90;;;;;;5027669;28;19916;-54
2021/06/06 10:57:49;;;;;;;;;;;19.20;99.90;;;;;;5024659;28;20387;-58
2021/06/06 11:00:18;;;;;;;;;;;19.10;99.90;;;;;;5024743;28;19928;-56
2021/06/06 11:02:49;;;;;;;;;;;19.20;99.90;;;;;;5030920;28;19909;-57
2021/06/06 11:05:30;;;;;;;;;;;19.30;99.90;;;;;;5014619;28;19921;-56
2021/06/06 11:07:55;;;;;;;;;;;19.20;99.90;;;;;;5014512;28;20000;-58
2021/06/06 11:10:32;;;;;;;;;;;19.00;99.90;;;;;;5017574;28;20391;-58
2021/06/06 11:12:57;;;;;;;;;;;19.10;99.90;;;;;;5022850;28;19916;-56
2021/06/06 11:15:53;;;;;;;;;;;19.20;99.90;;;;;;5030855;28;19917;-56
2021/06/06 11:18:20;;;;;;;;;;;19.10;99.90;;;;;;5029760;28;19909;-57
2021/06/06 11:20:59;;;;;;;;;;;19.10;99.90;;;;;;5030962;28;20418;-53
2021/06/06 11:23:39;;;;;;;;;;;19.20;99.90;;;;;;5029620;28;19920;-56
2021/06/06 11:26:35;;;;;;;;;;;19.30;99.90;;;;;;5030487;28;19917;-53
2021/06/06 11:29:19;;;;;;;;;;;19.30;99.90;;;;;;5029400;28;19956;-57
2021/06/06 11:31:58;;;;;;;;;;;19.40;99.90;;;;;;5031075;28;19913;-57
2021/06/06 11:34:26;;;;;;;;;;;19.40;99.90;;;;;;5024054;28;20382;-56
2021/06/06 11:37:02;;;;;;;;;;;19.50;99.90;;;;;;5030764;28;19917;-58
2021/06/06 11:39:27;;;;;;;;;;;19.50;99.90;;;;;;5022234;28;19913;-56
2021/06/06 11:41:53;;;;;;;;;;;19.40;99.90;;;;;;5021565;28;19920;-57
2021/06/06 11:44:28;;;;;;;;;;;19.30;99.90;;;;;;5030808;28;19913;-57
2021/06/06 11:47:06;;;;;;;;;;;19.30;99.90;;;;;;5015990;28;19921;-57
2021/06/06 11:49:35;;;;;;;;;;;19.30;99.90;;;;;;5017584;28;19996;-57
2021/06/06 11:52:05;;;;;;;;;;;19.40;99.90;;;;;;5018632;28;19944;-57
2021/06/06 11:54:33;;;;;;;;;;;19.40;99.90;;;;;;5016244;28;20292;-57
2021/06/06 11:57:05;;;;;;;;;;;19.40;99.90;;;;;;5013611;28;19914;-56
2021/06/06 11:59:37;;;;;;;;;;;19.50;99.90;;;;;;5014202;28;19945;-53
2021/06/06 12:02:11;;;;;;;;;;;19.50;99.90;;;;;;5017313;28;20379;-57
2021/06/06 12:04:37;;;;;;;;;;;19.50;99.90;;;;;;5015379;28;19924;-55
2021/06/06 12:07:11;;;;;;;;;;;19.40;99.90;;;;;;5030533;28;19909;-55
2021/06/06 12:09:37;;;;;;;;;;;19.40;99.90;;;;;;5030698;28;19913;-57
2021/06/06 12:12:07;;;;;;;;;;;19.50;99.90;;;;;;5030255;28;19909;-57
2021/06/06 12:14:33;;;;;;;;;;;19.50;99.90;;;;;;5029456;28;19916;-59
2021/06/06 12:17:19;;;;;;;;;;;19.40;99.90;;;;;;5030786;28;20162;-54
2021/06/06 12:19:48;;;;;;;;;;;19.50;99.90;;;;;;5025569;28;19920;-57
2021/06/06 12:22:20;;;;;;;;;;;19.50;99.90;;;;;;5030020;28;19919;-58
2021/06/06 12:25:00;;;;;;;;;;;19.60;99.90;;;;;;5029273;28;19924;-56
2021/06/06 12:27:26;;;;;;;;;;;19.50;99.90;;;;;;5023662;28;20364;-57
2021/06/06 12:29:57;;;;;;;;;;;19.50;99.90;;;;;;5025609;28;19949;-58
2021/06/06 12:32:28;;;;;;;;;;;19.50;99.90;;;;;;5015983;28;19992;-58
2021/06/06 12:34:53;;;;;;;;;;;19.60;99.90;;;;;;5026379;28;19909;-58
2021/06/06 12:37:25;;;;;;;;;;;19.60;99.90;;;;;;5030045;28;19920;-57
2021/06/06 12:39:52;;;;;;;;;;;19.60;99.90;;;;;;5029618;28;19920;-57
2021/06/06 12:42:18;;;;;;;;;;;19.60;99.90;;;;;;5029055;28;19910;-57
2021/06/06 12:44:48;;;;;;;;;;;19.70;99.90;;;;;;5020365;28;19986;-54
2021/06/06 12:47:40;;;;;;;;;;;19.80;99.90;;;;;;5026996;28;20004;-57
2021/06/06 12:50:11;;;;;;;;;;;19.80;99.90;;;;;;5014940;28;19913;-57
2021/06/06 12:52:41;;;;;;;;;;;19.80;99.90;;;;;;5028272;28;20383;-57
2021/06/06 12:55:25;;;;;;;;;;;19.90;99.90;;;;;;5028962;28;20374;-56
2021/06/06 12:57:52;;;;;;;;;;;19.90;99.90;;;;;;5026278;28;19917;-54
2021/06/06 13:00:25;;;;;;;;;;;20.00;99.90;;;;;;5029447;28;20456;-56
2021/06/06 13:02:51;;;;;;;;;;;20.00;99.90;;;;;;5017648;28;19913;-57
2021/06/06 13:05:31;;;;;;;;;;;20.00;99.90;;;;;;5027454;28;20461;-57
2021/06/06 13:07:58;;;;;;;;;;;20.10;99.90;;;;;;5015083;28;20004;-56
2021/06/06 13:10:26;;;;;;;;;;;20.10;99.90;;;;;;5023740;28;19911;-57
2021/06/06 13:12:52;;;;;;;;;;;20.10;99.90;;;;;;5028685;28;19909;-54
2021/06/06 13:15:30;;;;;;;;;;;20.10;99.90;;;;;;5028536;28;20016;-57
2021/06/06 13:17:56;;;;;;;;;;;20.10;99.90;;;;;;5031617;28;19952;-58
2021/06/06 13:20:23;;;;;;;;;;;20.10;99.90;;;;;;5028584;28;19952;-55
2021/06/06 13:22:57;;;;;;;;;;;20.10;99.90;;;;;;5028767;28;19915;-57
2021/06/06 13:25:32;;;;;;;;;;;20.10;99.90;;;;;;5021658;28;19924;-57
2021/06/06 13:27:58;;;;;;;;;;;20.20;99.90;;;;;;5028718;28;20010;-58
2021/06/06 13:30:24;;;;;;;;;;;20.20;99.90;;;;;;5021533;28;19960;-50
2021/06/06 13:32:54;;;;;;;;;;;20.20;99.90;;;;;;5028659;28;20284;-57
2021/06/06 13:35:20;;;;;;;;;;;20.30;99.90;;;;;;5022380;28;19924;-57
2021/06/06 13:37:47;;;;;;;;;;;20.30;99.90;;;;;;5025175;28;19913;-53
2021/06/06 13:40:18;;;;;;;;;;;20.30;99.90;;;;;;5028865;28;19939;-57
2021/06/06 13:42:44;;;;;;;;;;;20.20;99.90;;;;;;5030946;28;19916;-56
2021/06/06 13:45:10;;;;;;;;;;;20.20;99.90;;;;;;5028166;28;19913;-57
2021/06/06 13:47:36;;;;;;;;;;;20.30;99.90;;;;;;5028549;28;20003;-55
2021/06/06 13:50:03;;;;;;;;;;;20.30;99.90;;;;;;5028479;28;20020;-57
2021/06/06 13:52:28;;;;;;;;;;;20.30;99.90;;;;;;5028229;28;20387;-57
2021/06/06 13:54:54;;;;;;;;;;;20.30;99.90;;;;;;5028101;28;19913;-57
2021/06/06 13:57:20;;;;;;;;;;;20.30;99.90;;;;;;5028511;28;20284;-54
2021/06/06 13:59:45;;;;;;;;;;;20.30;99.90;;;;;;5027290;28;19960;-55
2021/06/06 14:02:11;;;;;;;;;;;20.30;99.90;;;;;;5026985;28;19996;-53
2021/06/06 14:04:38;;;;;;;;;;;20.40;99.90;;;;;;5013427;28;20395;-55
2021/06/06 14:07:04;;;;;;;;;;;20.40;99.90;;;;;;5017121;28;19925;-58
2021/06/06 14:09:29;;;;;;;;;;;20.40;99.90;;;;;;5013898;28;19913;-58
2021/06/06 14:11:58;;;;;;;;;;;20.30;99.90;;;;;;5011324;28;19914;-56
2021/06/06 14:14:23;;;;;;;;;;;20.30;99.90;;;;;;5026597;28;19963;-56
2021/06/06 14:16:49;;;;;;;;;;;20.30;99.90;;;;;;5025650;28;19921;-58
2021/06/06 14:19:16;;;;;;;;;;;20.30;99.90;;;;;;5015231;28;19991;-55
2021/06/06 14:21:41;;;;;;;;;;;20.30;99.90;;;;;;5027507;28;19917;-56
2021/06/06 14:24:08;;;;;;;;;;;20.20;99.90;;;;;;5027135;28;19921;-57